sensor_id;sensor_type;location;lat;lon;timestamp;temperature;humidity
49222;DHT22;35047;37.588;-122.048;2023-10-19T00:01:26;32.70;44.50
49222;DHT22;35047;37.588;-122.048;2023-10-19T00:03:54;32.60;44.10
49222;DHT22;35047;37.588;-122.048;2023-10-19T00:06:22;32.50;43.60
49222;DHT22;35047;37.588;-122.048;2023-10-19T00:08:52;32.40;43.90
49222;DHT22;35047;37.588;-122.048;2023-10-19T00:11:19;32.40;43.50
49222;DHT22;35047;37.588;-122.048;2023-10-19T00:13:50;32.40;43.80
49222;DHT22;35047;37.588;-122.048;2023-10-19T00:16:16;32.30;44.10
49222;DHT22;35047;37.588;-122.048;2023-10-19T00:18:46;32.30;43.80
49222;DHT22;35047;37.588;-122.048;2023-10-19T00:21:15;32.20;44.50
49222;DHT22;35047;37.588;-122.048;2023-10-19T00:23:55;32.20;44.50
49222;DHT22;35047;37.588;-122.048;2023-10-19T00:26:24;32.10;44.90
49222;DHT22;35047;37.588;-122.048;2023-10-19T00:28:56;32.00;44.00
49222;DHT22;35047;37.588;-122.048;2023-10-19T00:31:24;31.90;44.30
49222;DHT22;35047;37.588;-122.048;2023-10-19T00:33:52;31.80;44.70
49222;DHT22;35047;37.588;-122.048;2023-10-19T00:36:21;31.80;44.90
49222;DHT22;35047;37.588;-122.048;2023-10-19T00:38:48;31.80;44.90
49222;DHT22;35047;37.588;-122.048;2023-10-19T00:41:17;31.60;45.00
49222;DHT22;35047;37.588;-122.048;2023-10-19T00:43:56;31.60;45.40
49222;DHT22;35047;37.588;-122.048;2023-10-19T00:46:31;31.50;45.60
49222;DHT22;35047;37.588;-122.048;2023-10-19T00:49:05;31.50;45.60
49222;DHT22;35047;37.588;-122.048;2023-10-19T00:51:39;31.40;45.80
49222;DHT22;35047;37.588;-122.048;2023-10-19T00:54:17;31.30;45.90
49222;DHT22;35047;37.588;-122.048;2023-10-19T00:56:53;31.20;46.00
49222;DHT22;35047;37.588;-122.048;2023-10-19T00:59:26;31.10;46.30
49222;DHT22;35047;37.588;-122.048;2023-10-19T01:02:05;31.00;46.40
49222;DHT22;35047;37.588;-122.048;2023-10-19T01:04:45;30.90;46.50
49222;DHT22;35047;37.588;-122.048;2023-10-19T01:07:19;30.80;46.70
49222;DHT22;35047;37.588;-122.048;2023-10-19T01:09:50;30.70;47.20
49222;DHT22;35047;37.588;-122.048;2023-10-19T01:12:22;30.60;47.50
49222;DHT22;35047;37.588;-122.048;2023-10-19T01:15:16;30.50;48.10
49222;DHT22;35047;37.588;-122.048;2023-10-19T01:17:50;30.40;48.90
49222;DHT22;35047;37.588;-122.048;2023-10-19T01:20:30;30.30;49.80
49222;DHT22;35047;37.588;-122.048;2023-10-19T01:22:59;30.20;50.40
49222;DHT22;35047;37.588;-122.048;2023-10-19T01:25:54;30.10;50.70
49222;DHT22;35047;37.588;-122.048;2023-10-19T01:28:25;29.90;51.00
49222;DHT22;35047;37.588;-122.048;2023-10-19T01:30:54;29.80;51.00
49222;DHT22;35047;37.588;-122.048;2023-10-19T01:33:22;29.70;50.30
49222;DHT22;35047;37.588;-122.048;2023-10-19T01:35:49;29.60;50.00
49222;DHT22;35047;37.588;-122.048;2023-10-19T01:38:34;29.40;50.30
49222;DHT22;35047;37.588;-122.048;2023-10-19T01:41:01;29.30;52.10
49222;DHT22;35047;37.588;-122.048;2023-10-19T01:43:32;29.20;52.10
49222;DHT22;35047;37.588;-122.048;2023-10-19T01:46:01;29.10;51.90
49222;DHT22;35047;37.588;-122.048;2023-10-19T01:48:33;29.00;52.40
49222;DHT22;35047;37.588;-122.048;2023-10-19T01:51:02;28.90;53.20
49222;DHT22;35047;37.588;-122.048;2023-10-19T01:53:33;28.80;53.90
49222;DHT22;35047;37.588;-122.048;2023-10-19T01:56:03;28.70;54.00
49222;DHT22;35047;37.588;-122.048;2023-10-19T01:58:31;28.50;54.20
49222;DHT22;35047;37.588;-122.048;2023-10-19T02:01:03;28.40;54.70
49222;DHT22;35047;37.588;-122.048;2023-10-19T02:04:00;28.30;55.30
49222;DHT22;35047;37.588;-122.048;2023-10-19T02:06:32;28.20;55.30
49222;DHT22;35047;37.588;-122.048;2023-10-19T02:09:10;28.10;56.00
49222;DHT22;35047;37.588;-122.048;2023-10-19T02:11:50;28.00;56.50
49222;DHT22;35047;37.588;-122.048;2023-10-19T02:14:19;27.90;56.70
49222;DHT22;35047;37.588;-122.048;2023-10-19T02:16:53;27.80;57.00
49222;DHT22;35047;37.588;-122.048;2023-10-19T02:19:23;27.70;57.30
49222;DHT22;35047;37.588;-122.048;2023-10-19T02:21:52;27.60;57.60
49222;DHT22;35047;37.588;-122.048;2023-10-19T02:24:19;27.50;58.00
49222;DHT22;35047;37.588;-122.048;2023-10-19T02:26:49;27.40;58.50
49222;DHT22;35047;37.588;-122.048;2023-10-19T02:29:17;27.30;58.20
49222;DHT22;35047;37.588;-122.048;2023-10-19T02:31:44;27.20;58.50
49222;DHT22;35047;37.588;-122.048;2023-10-19T02:34:12;27.10;58.90
49222;DHT22;35047;37.588;-122.048;2023-10-19T02:36:43;27.00;59.20
49222;DHT22;35047;37.588;-122.048;2023-10-19T02:39:11;26.90;59.70
49222;DHT22;35047;37.588;-122.048;2023-10-19T02:41:41;26.80;60.10
49222;DHT22;35047;37.588;-122.048;2023-10-19T02:44:14;26.80;60.80
49222;DHT22;35047;37.588;-122.048;2023-10-19T02:46:48;26.70;61.10
49222;DHT22;35047;37.588;-122.048;2023-10-19T02:49:20;26.60;61.50
49222;DHT22;35047;37.588;-122.048;2023-10-19T02:51:48;26.50;61.80
49222;DHT22;35047;37.588;-122.048;2023-10-19T02:54:16;26.40;62.10
49222;DHT22;35047;37.588;-122.048;2023-10-19T02:56:53;26.30;62.20
49222;DHT22;35047;37.588;-122.048;2023-10-19T02:59:21;26.20;62.80
49222;DHT22;35047;37.588;-122.048;2023-10-19T03:01:52;26.10;63.40
49222;DHT22;35047;37.588;-122.048;2023-10-19T03:04:20;26.10;63.90
49222;DHT22;35047;37.588;-122.048;2023-10-19T03:06:47;26.00;63.90
49222;DHT22;35047;37.588;-122.048;2023-10-19T03:09:13;25.90;64.30
49222;DHT22;35047;37.588;-122.048;2023-10-19T03:11:55;25.90;65.00
49222;DHT22;35047;37.588;-122.048;2023-10-19T03:14:26;25.80;65.40
49222;DHT22;35047;37.588;-122.048;2023-10-19T03:16:53;25.80;65.80
49222;DHT22;35047;37.588;-122.048;2023-10-19T03:19:23;25.80;66.10
49222;DHT22;35047;37.588;-122.048;2023-10-19T03:21:53;25.80;66.70
49222;DHT22;35047;37.588;-122.048;2023-10-19T03:24:21;25.80;67.00
49222;DHT22;35047;37.588;-122.048;2023-10-19T03:27:08;25.80;67.20
49222;DHT22;35047;37.588;-122.048;2023-10-19T03:29:47;25.80;67.20
49222;DHT22;35047;37.588;-122.048;2023-10-19T03:32:19;25.80;67.40
49222;DHT22;35047;37.588;-122.048;2023-10-19T03:34:55;25.80;67.20
49222;DHT22;35047;37.588;-122.048;2023-10-19T03:37:28;25.80;67.20
49222;DHT22;35047;37.588;-122.048;2023-10-19T03:39:58;25.90;67.10
49222;DHT22;35047;37.588;-122.048;2023-10-19T03:42:25;25.90;67.00
49222;DHT22;35047;37.588;-122.048;2023-10-19T03:44:54;25.90;67.30
49222;DHT22;35047;37.588;-122.048;2023-10-19T03:47:21;25.90;67.40
49222;DHT22;35047;37.588;-122.048;2023-10-19T03:49:52;25.80;67.70
49222;DHT22;35047;37.588;-122.048;2023-10-19T03:52:19;25.70;68.00
49222;DHT22;35047;37.588;-122.048;2023-10-19T03:54:46;25.60;68.30
49222;DHT22;35047;37.588;-122.048;2023-10-19T03:57:15;25.50;68.40
49222;DHT22;35047;37.588;-122.048;2023-10-19T03:59:46;25.40;68.70
49222;DHT22;35047;37.588;-122.048;2023-10-19T04:02:16;25.40;69.00
49222;DHT22;35047;37.588;-122.048;2023-10-19T04:04:47;25.30;68.90
49222;DHT22;35047;37.588;-122.048;2023-10-19T04:07:18;25.20;68.90
49222;DHT22;35047;37.588;-122.048;2023-10-19T04:09:49;25.10;69.20
49222;DHT22;35047;37.588;-122.048;2023-10-19T04:12:36;25.10;69.30
49222;DHT22;35047;37.588;-122.048;2023-10-19T04:15:05;25.00;69.00
49222;DHT22;35047;37.588;-122.048;2023-10-19T04:17:47;24.90;69.10
49222;DHT22;35047;37.588;-122.048;2023-10-19T04:20:19;24.90;68.90
49222;DHT22;35047;37.588;-122.048;2023-10-19T04:22:46;24.80;68.60
49222;DHT22;35047;37.588;-122.048;2023-10-19T04:25:14;24.80;68.40
49222;DHT22;35047;37.588;-122.048;2023-10-19T04:27:51;24.70;68.50
49222;DHT22;35047;37.588;-122.048;2023-10-19T04:30:18;24.60;68.60
49222;DHT22;35047;37.588;-122.048;2023-10-19T04:32:53;24.60;68.40
49222;DHT22;35047;37.588;-122.048;2023-10-19T04:35:23;24.50;68.60
49222;DHT22;35047;37.588;-122.048;2023-10-19T04:37:53;24.50;68.60
49222;DHT22;35047;37.588;-122.048;2023-10-19T04:40:23;24.40;68.80
49222;DHT22;35047;37.588;-122.048;2023-10-19T04:42:53;24.30;69.00
49222;DHT22;35047;37.588;-122.048;2023-10-19T04:45:20;24.30;69.10
49222;DHT22;35047;37.588;-122.048;2023-10-19T04:47:51;24.30;69.20
49222;DHT22;35047;37.588;-122.048;2023-10-19T04:50:21;24.20;69.60
49222;DHT22;35047;37.588;-122.048;2023-10-19T04:52:47;24.20;69.80
49222;DHT22;35047;37.588;-122.048;2023-10-19T04:55:14;24.10;70.00
49222;DHT22;35047;37.588;-122.048;2023-10-19T04:57:40;24.10;70.10
49222;DHT22;35047;37.588;-122.048;2023-10-19T05:00:07;24.10;70.10
49222;DHT22;35047;37.588;-122.048;2023-10-19T05:02:39;24.00;70.50
49222;DHT22;35047;37.588;-122.048;2023-10-19T05:05:06;24.00;70.80
49222;DHT22;35047;37.588;-122.048;2023-10-19T05:07:32;24.00;70.80
49222;DHT22;35047;37.588;-122.048;2023-10-19T05:09:59;24.00;70.70
49222;DHT22;35047;37.588;-122.048;2023-10-19T05:12:26;24.00;70.80
49222;DHT22;35047;37.588;-122.048;2023-10-19T05:14:52;24.00;71.20
49222;DHT22;35047;37.588;-122.048;2023-10-19T05:17:19;23.90;71.10
49222;DHT22;35047;37.588;-122.048;2023-10-19T05:19:47;23.90;71.20
49222;DHT22;35047;37.588;-122.048;2023-10-19T05:22:14;23.90;71.40
49222;DHT22;35047;37.588;-122.048;2023-10-19T05:24:40;23.90;71.70
49222;DHT22;35047;37.588;-122.048;2023-10-19T05:27:07;23.90;71.60
49222;DHT22;35047;37.588;-122.048;2023-10-19T05:29:36;23.90;71.90
49222;DHT22;35047;37.588;-122.048;2023-10-19T05:32:02;23.80;71.70
49222;DHT22;35047;37.588;-122.048;2023-10-19T05:34:29;23.80;71.90
49222;DHT22;35047;37.588;-122.048;2023-10-19T05:36:58;23.80;72.00
49222;DHT22;35047;37.588;-122.048;2023-10-19T05:39:28;23.80;72.30
49222;DHT22;35047;37.588;-122.048;2023-10-19T05:41:57;23.80;72.30
49222;DHT22;35047;37.588;-122.048;2023-10-19T05:44:30;23.80;72.30
49222;DHT22;35047;37.588;-122.048;2023-10-19T05:46:57;23.70;72.50
49222;DHT22;35047;37.588;-122.048;2023-10-19T05:49:28;23.70;72.90
49222;DHT22;35047;37.588;-122.048;2023-10-19T05:51:54;23.70;73.00
49222;DHT22;35047;37.588;-122.048;2023-10-19T05:54:21;23.70;73.30
49222;DHT22;35047;37.588;-122.048;2023-10-19T05:56:50;23.70;73.50
49222;DHT22;35047;37.588;-122.048;2023-10-19T05:59:16;23.70;74.40
49222;DHT22;35047;37.588;-122.048;2023-10-19T06:01:42;23.60;73.90
49222;DHT22;35047;37.588;-122.048;2023-10-19T06:04:13;23.60;73.90
49222;DHT22;35047;37.588;-122.048;2023-10-19T06:06:40;23.50;74.20
49222;DHT22;35047;37.588;-122.048;2023-10-19T06:09:07;23.50;74.40
49222;DHT22;35047;37.588;-122.048;2023-10-19T06:11:37;23.50;74.80
49222;DHT22;35047;37.588;-122.048;2023-10-19T06:14:08;23.50;75.10
49222;DHT22;35047;37.588;-122.048;2023-10-19T06:16:35;23.50;75.20
49222;DHT22;35047;37.588;-122.048;2023-10-19T06:19:02;23.40;75.30
49222;DHT22;35047;37.588;-122.048;2023-10-19T06:21:29;23.50;75.40
49222;DHT22;35047;37.588;-122.048;2023-10-19T06:23:56;23.40;75.30
49222;DHT22;35047;37.588;-122.048;2023-10-19T06:26:23;23.40;75.20
49222;DHT22;35047;37.588;-122.048;2023-10-19T06:28:50;23.40;75.40
49222;DHT22;35047;37.588;-122.048;2023-10-19T06:31:16;23.40;75.10
49222;DHT22;35047;37.588;-122.048;2023-10-19T06:33:43;23.40;75.10
49222;DHT22;35047;37.588;-122.048;2023-10-19T06:36:09;23.30;75.20
49222;DHT22;35047;37.588;-122.048;2023-10-19T06:38:36;23.30;75.20
49222;DHT22;35047;37.588;-122.048;2023-10-19T06:41:11;23.30;75.20
49222;DHT22;35047;37.588;-122.048;2023-10-19T06:43:38;23.30;75.30
49222;DHT22;35047;37.588;-122.048;2023-10-19T06:46:06;23.20;75.50
49222;DHT22;35047;37.588;-122.048;2023-10-19T06:48:32;23.20;75.50
49222;DHT22;35047;37.588;-122.048;2023-10-19T06:50:59;23.20;75.60
49222;DHT22;35047;37.588;-122.048;2023-10-19T06:53:26;23.10;75.80
49222;DHT22;35047;37.588;-122.048;2023-10-19T06:55:53;23.10;75.90
49222;DHT22;35047;37.588;-122.048;2023-10-19T06:58:21;23.10;76.00
49222;DHT22;35047;37.588;-122.048;2023-10-19T07:00:47;23.10;75.90
49222;DHT22;35047;37.588;-122.048;2023-10-19T07:03:22;23.00;76.10
49222;DHT22;35047;37.588;-122.048;2023-10-19T07:05:51;23.00;76.10
49222;DHT22;35047;37.588;-122.048;2023-10-19T07:08:19;23.00;76.90
49222;DHT22;35047;37.588;-122.048;2023-10-19T07:10:47;23.00;76.20
49222;DHT22;35047;37.588;-122.048;2023-10-19T07:13:15;23.00;76.40
49222;DHT22;35047;37.588;-122.048;2023-10-19T07:15:45;22.90;76.40
49222;DHT22;35047;37.588;-122.048;2023-10-19T07:18:12;22.90;76.40
49222;DHT22;35047;37.588;-122.048;2023-10-19T07:20:39;22.90;76.40
49222;DHT22;35047;37.588;-122.048;2023-10-19T07:23:08;22.90;76.30
49222;DHT22;35047;37.588;-122.048;2023-10-19T07:25:48;22.90;76.30
49222;DHT22;35047;37.588;-122.048;2023-10-19T07:28:20;22.80;76.20
49222;DHT22;35047;37.588;-122.048;2023-10-19T07:30:48;22.80;76.30
49222;DHT22;35047;37.588;-122.048;2023-10-19T07:33:17;22.80;76.20
49222;DHT22;35047;37.588;-122.048;2023-10-19T07:35:45;22.80;76.00
49222;DHT22;35047;37.588;-122.048;2023-10-19T07:38:18;22.80;75.90
49222;DHT22;35047;37.588;-122.048;2023-10-19T07:40:48;22.80;76.10
49222;DHT22;35047;37.588;-122.048;2023-10-19T07:43:14;22.70;76.10
49222;DHT22;35047;37.588;-122.048;2023-10-19T07:45:41;22.70;76.10
49222;DHT22;35047;37.588;-122.048;2023-10-19T07:48:08;22.70;76.30
49222;DHT22;35047;37.588;-122.048;2023-10-19T07:50:38;22.70;76.10
49222;DHT22;35047;37.588;-122.048;2023-10-19T07:53:06;22.70;76.00
49222;DHT22;35047;37.588;-122.048;2023-10-19T07:55:34;22.60;75.90
49222;DHT22;35047;37.588;-122.048;2023-10-19T07:58:01;22.60;76.10
49222;DHT22;35047;37.588;-122.048;2023-10-19T08:00:29;22.50;76.10
49222;DHT22;35047;37.588;-122.048;2023-10-19T08:02:56;22.50;76.80
49222;DHT22;35047;37.588;-122.048;2023-10-19T08:05:23;22.50;76.00
49222;DHT22;35047;37.588;-122.048;2023-10-19T08:07:49;22.50;75.90
49222;DHT22;35047;37.588;-122.048;2023-10-19T08:10:18;22.50;76.10
49222;DHT22;35047;37.588;-122.048;2023-10-19T08:12:47;22.40;76.10
49222;DHT22;35047;37.588;-122.048;2023-10-19T08:15:14;22.40;76.20
49222;DHT22;35047;37.588;-122.048;2023-10-19T08:17:42;22.40;76.30
49222;DHT22;35047;37.588;-122.048;2023-10-19T08:20:11;22.40;76.50
49222;DHT22;35047;37.588;-122.048;2023-10-19T08:22:57;22.40;76.60
49222;DHT22;35047;37.588;-122.048;2023-10-19T08:25:25;22.30;76.50
49222;DHT22;35047;37.588;-122.048;2023-10-19T08:27:54;22.30;76.50
49222;DHT22;35047;37.588;-122.048;2023-10-19T08:30:24;22.30;76.60
49222;DHT22;35047;37.588;-122.048;2023-10-19T08:32:51;22.30;76.50
49222;DHT22;35047;37.588;-122.048;2023-10-19T08:35:18;22.30;76.50
49222;DHT22;35047;37.588;-122.048;2023-10-19T08:37:47;22.20;76.40
49222;DHT22;35047;37.588;-122.048;2023-10-19T08:40:14;22.20;76.30
49222;DHT22;35047;37.588;-122.048;2023-10-19T08:42:41;22.20;76.30
49222;DHT22;35047;37.588;-122.048;2023-10-19T08:45:08;22.20;76.60
49222;DHT22;35047;37.588;-122.048;2023-10-19T08:47:36;22.10;77.20
49222;DHT22;35047;37.588;-122.048;2023-10-19T08:50:04;22.10;76.60
49222;DHT22;35047;37.588;-122.048;2023-10-19T08:52:34;22.10;77.00
49222;DHT22;35047;37.588;-122.048;2023-10-19T08:55:03;22.10;77.60
49222;DHT22;35047;37.588;-122.048;2023-10-19T08:57:30;22.00;76.90
49222;DHT22;35047;37.588;-122.048;2023-10-19T08:59:57;22.00;76.90
49222;DHT22;35047;37.588;-122.048;2023-10-19T09:02:24;22.00;76.80
49222;DHT22;35047;37.588;-122.048;2023-10-19T09:04:51;22.00;76.60
49222;DHT22;35047;37.588;-122.048;2023-10-19T09:07:17;22.00;76.50
49222;DHT22;35047;37.588;-122.048;2023-10-19T09:09:45;21.90;76.50
49222;DHT22;35047;37.588;-122.048;2023-10-19T09:12:13;22.00;76.80
49222;DHT22;35047;37.588;-122.048;2023-10-19T09:14:40;21.90;76.60
49222;DHT22;35047;37.588;-122.048;2023-10-19T09:17:09;21.90;76.70
49222;DHT22;35047;37.588;-122.048;2023-10-19T09:19:44;21.90;76.90
49222;DHT22;35047;37.588;-122.048;2023-10-19T09:22:13;21.80;76.90
49222;DHT22;35047;37.588;-122.048;2023-10-19T09:24:49;21.80;76.90
49222;DHT22;35047;37.588;-122.048;2023-10-19T09:27:20;21.80;77.00
49222;DHT22;35047;37.588;-122.048;2023-10-19T09:29:49;21.80;77.30
49222;DHT22;35047;37.588;-122.048;2023-10-19T09:32:18;21.80;77.50
49222;DHT22;35047;37.588;-122.048;2023-10-19T09:34:45;21.80;77.70
49222;DHT22;35047;37.588;-122.048;2023-10-19T09:37:16;21.70;77.80
49222;DHT22;35047;37.588;-122.048;2023-10-19T09:39:43;21.70;77.80
49222;DHT22;35047;37.588;-122.048;2023-10-19T09:42:11;21.60;77.80
49222;DHT22;35047;37.588;-122.048;2023-10-19T09:44:50;21.60;77.90
49222;DHT22;35047;37.588;-122.048;2023-10-19T09:47:37;21.50;78.20
49222;DHT22;35047;37.588;-122.048;2023-10-19T09:50:05;21.50;78.30
49222;DHT22;35047;37.588;-122.048;2023-10-19T09:52:33;21.40;78.20
49222;DHT22;35047;37.588;-122.048;2023-10-19T09:55:15;21.40;78.20
49222;DHT22;35047;37.588;-122.048;2023-10-19T09:57:52;21.40;78.40
49222;DHT22;35047;37.588;-122.048;2023-10-19T10:00:20;21.30;78.70
49222;DHT22;35047;37.588;-122.048;2023-10-19T10:02:50;21.30;78.60
49222;DHT22;35047;37.588;-122.048;2023-10-19T10:16:00;21.00;79.60
49222;DHT22;35047;37.588;-122.048;2023-10-19T10:18:34;21.00;79.50
49222;DHT22;35047;37.588;-122.048;2023-10-19T10:21:15;21.00;79.40
49222;DHT22;35047;37.588;-122.048;2023-10-19T10:23:54;20.90;79.20
49222;DHT22;35047;37.588;-122.048;2023-10-19T10:26:23;20.90;79.40
49222;DHT22;35047;37.588;-122.048;2023-10-19T10:29:11;20.90;79.60
49222;DHT22;35047;37.588;-122.048;2023-10-19T10:31:46;20.90;79.70
49222;DHT22;35047;37.588;-122.048;2023-10-19T10:37:08;20.80;79.80
49222;DHT22;35047;37.588;-122.048;2023-10-19T10:39:36;20.80;79.60
49222;DHT22;35047;37.588;-122.048;2023-10-19T10:42:06;20.70;79.40
49222;DHT22;35047;37.588;-122.048;2023-10-19T10:44:43;20.70;79.30
49222;DHT22;35047;37.588;-122.048;2023-10-19T10:47:18;20.70;79.50
49222;DHT22;35047;37.588;-122.048;2023-10-19T10:49:52;20.70;79.40
49222;DHT22;35047;37.588;-122.048;2023-10-19T10:54:56;20.70;79.60
49222;DHT22;35047;37.588;-122.048;2023-10-19T10:57:23;20.70;79.80
49222;DHT22;35047;37.588;-122.048;2023-10-19T11:00:10;20.60;79.60
49222;DHT22;35047;37.588;-122.048;2023-10-19T11:02:46;20.60;80.40
49222;DHT22;35047;37.588;-122.048;2023-10-19T11:05:14;20.60;79.80
49222;DHT22;35047;37.588;-122.048;2023-10-19T11:08:02;20.60;79.60
49222;DHT22;35047;37.588;-122.048;2023-10-19T11:10:32;20.50;79.50
49222;DHT22;35047;37.588;-122.048;2023-10-19T11:13:10;20.50;79.30
49222;DHT22;35047;37.588;-122.048;2023-10-19T11:15:38;20.50;79.30
49222;DHT22;35047;37.588;-122.048;2023-10-19T11:18:05;20.50;79.40
49222;DHT22;35047;37.588;-122.048;2023-10-19T11:20:35;20.50;79.50
49222;DHT22;35047;37.588;-122.048;2023-10-19T11:23:02;20.40;79.50
49222;DHT22;35047;37.588;-122.048;2023-10-19T11:25:30;20.40;79.60
49222;DHT22;35047;37.588;-122.048;2023-10-19T11:27:59;20.40;79.60
49222;DHT22;35047;37.588;-122.048;2023-10-19T11:30:30;20.40;79.90
49222;DHT22;35047;37.588;-122.048;2023-10-19T11:33:01;20.40;80.00
49222;DHT22;35047;37.588;-122.048;2023-10-19T11:35:29;20.30;80.10
49222;DHT22;35047;37.588;-122.048;2023-10-19T11:37:58;20.30;80.40
49222;DHT22;35047;37.588;-122.048;2023-10-19T11:40:25;20.30;80.40
49222;DHT22;35047;37.588;-122.048;2023-10-19T11:42:52;20.30;80.40
49222;DHT22;35047;37.588;-122.048;2023-10-19T11:45:22;20.30;80.70
49222;DHT22;35047;37.588;-122.048;2023-10-19T11:47:53;20.20;80.70
49222;DHT22;35047;37.588;-122.048;2023-10-19T11:50:21;20.20;81.20
49222;DHT22;35047;37.588;-122.048;2023-10-19T11:52:47;20.20;80.50
49222;DHT22;35047;37.588;-122.048;2023-10-19T11:55:15;20.10;81.20
49222;DHT22;35047;37.588;-122.048;2023-10-19T11:57:44;20.10;81.20
49222;DHT22;35047;37.588;-122.048;2023-10-19T12:00:14;20.10;81.20
49222;DHT22;35047;37.588;-122.048;2023-10-19T12:02:59;20.10;81.20
49222;DHT22;35047;37.588;-122.048;2023-10-19T12:05:26;20.10;81.40
49222;DHT22;35047;37.588;-122.048;2023-10-19T12:07:52;20.00;81.70
49222;DHT22;35047;37.588;-122.048;2023-10-19T12:10:19;20.00;81.80
49222;DHT22;35047;37.588;-122.048;2023-10-19T12:12:55;20.00;81.70
49222;DHT22;35047;37.588;-122.048;2023-10-19T12:15:22;20.00;84.30
49222;DHT22;35047;37.588;-122.048;2023-10-19T12:17:49;20.00;85.70
49222;DHT22;35047;37.588;-122.048;2023-10-19T12:20:17;20.00;86.20
49222;DHT22;35047;37.588;-122.048;2023-10-19T12:22:48;20.00;86.90
49222;DHT22;35047;37.588;-122.048;2023-10-19T12:25:18;20.00;86.20
49222;DHT22;35047;37.588;-122.048;2023-10-19T12:27:44;20.00;84.90
49222;DHT22;35047;37.588;-122.048;2023-10-19T12:30:11;20.00;84.40
49222;DHT22;35047;37.588;-122.048;2023-10-19T12:32:48;19.90;83.80
49222;DHT22;35047;37.588;-122.048;2023-10-19T12:35:18;19.90;84.60
49222;DHT22;35047;37.588;-122.048;2023-10-19T12:37:56;19.90;87.40
49222;DHT22;35047;37.588;-122.048;2023-10-19T12:40:22;19.90;89.00
49222;DHT22;35047;37.588;-122.048;2023-10-19T12:42:56;19.90;89.30
49222;DHT22;35047;37.588;-122.048;2023-10-19T12:45:24;19.90;87.90
49222;DHT22;35047;37.588;-122.048;2023-10-19T12:47:51;19.90;86.00
49222;DHT22;35047;37.588;-122.048;2023-10-19T12:50:22;19.90;85.40
49222;DHT22;35047;37.588;-122.048;2023-10-19T12:52:52;19.90;84.80
49222;DHT22;35047;37.588;-122.048;2023-10-19T12:55:22;19.80;84.60
49222;DHT22;35047;37.588;-122.048;2023-10-19T12:57:51;19.90;84.70
49222;DHT22;35047;37.588;-122.048;2023-10-19T13:00:18;19.80;84.20
49222;DHT22;35047;37.588;-122.048;2023-10-19T13:02:55;19.80;83.90
49222;DHT22;35047;37.588;-122.048;2023-10-19T13:05:27;19.80;84.00
49222;DHT22;35047;37.588;-122.048;2023-10-19T13:07:54;19.70;83.70
49222;DHT22;35047;37.588;-122.048;2023-10-19T13:10:33;19.80;83.80
49222;DHT22;35047;37.588;-122.048;2023-10-19T13:13:01;19.70;83.80
49222;DHT22;35047;37.588;-122.048;2023-10-19T13:15:35;19.70;83.50
49222;DHT22;35047;37.588;-122.048;2023-10-19T13:18:04;19.70;83.40
49222;DHT22;35047;37.588;-122.048;2023-10-19T13:20:32;19.70;83.40
49222;DHT22;35047;37.588;-122.048;2023-10-19T13:23:03;19.70;83.50
49222;DHT22;35047;37.588;-122.048;2023-10-19T13:25:31;19.70;83.40
49222;DHT22;35047;37.588;-122.048;2023-10-19T13:28:19;19.70;83.70
49222;DHT22;35047;37.588;-122.048;2023-10-19T13:30:48;19.70;83.80
49222;DHT22;35047;37.588;-122.048;2023-10-19T13:33:15;19.70;83.70
49222;DHT22;35047;37.588;-122.048;2023-10-19T13:35:43;19.70;83.60
49222;DHT22;35047;37.588;-122.048;2023-10-19T13:38:11;19.60;83.60
49222;DHT22;35047;37.588;-122.048;2023-10-19T13:40:40;19.60;83.30
49222;DHT22;35047;37.588;-122.048;2023-10-19T13:43:09;19.60;83.00
49222;DHT22;35047;37.588;-122.048;2023-10-19T13:45:40;19.60;83.30
49222;DHT22;35047;37.588;-122.048;2023-10-19T13:48:09;19.60;83.70
49222;DHT22;35047;37.588;-122.048;2023-10-19T13:50:47;19.60;83.40
49222;DHT22;35047;37.588;-122.048;2023-10-19T13:53:15;19.50;83.60
49222;DHT22;35047;37.588;-122.048;2023-10-19T13:55:43;19.50;83.50
49222;DHT22;35047;37.588;-122.048;2023-10-19T13:58:10;19.50;83.50
49222;DHT22;35047;37.588;-122.048;2023-10-19T14:00:37;19.50;83.70
49222;DHT22;35047;37.588;-122.048;2023-10-19T14:03:07;19.50;83.40
49222;DHT22;35047;37.588;-122.048;2023-10-19T14:05:44;19.50;83.60
49222;DHT22;35047;37.588;-122.048;2023-10-19T14:08:15;19.50;83.60
49222;DHT22;35047;37.588;-122.048;2023-10-19T14:10:42;19.40;83.70
49222;DHT22;35047;37.588;-122.048;2023-10-19T14:13:09;19.40;83.60
49222;DHT22;35047;37.588;-122.048;2023-10-19T14:15:37;19.40;83.60
49222;DHT22;35047;37.588;-122.048;2023-10-19T14:18:04;19.40;83.90
49222;DHT22;35047;37.588;-122.048;2023-10-19T14:20:31;19.40;83.60
49222;DHT22;35047;37.588;-122.048;2023-10-19T14:23:00;19.30;83.40
49222;DHT22;35047;37.588;-122.048;2023-10-19T14:25:28;19.30;83.30
49222;DHT22;35047;37.588;-122.048;2023-10-19T14:27:56;19.30;83.20
49222;DHT22;35047;37.588;-122.048;2023-10-19T14:30:27;19.30;83.40
49222;DHT22;35047;37.588;-122.048;2023-10-19T14:32:54;19.30;83.50
49222;DHT22;35047;37.588;-122.048;2023-10-19T14:35:23;19.30;83.50
49222;DHT22;35047;37.588;-122.048;2023-10-19T14:37:52;19.30;83.80
49222;DHT22;35047;37.588;-122.048;2023-10-19T14:40:24;19.30;84.30
49222;DHT22;35047;37.588;-122.048;2023-10-19T14:42:52;19.20;84.40
49222;DHT22;35047;37.588;-122.048;2023-10-19T14:45:24;19.20;84.80
49222;DHT22;35047;37.588;-122.048;2023-10-19T14:47:59;19.20;85.00
49222;DHT22;35047;37.588;-122.048;2023-10-19T14:50:29;19.10;85.00
49222;DHT22;35047;37.588;-122.048;2023-10-19T14:52:56;19.00;85.50
49222;DHT22;35047;37.588;-122.048;2023-10-19T14:55:23;19.00;85.90
49222;DHT22;35047;37.588;-122.048;2023-10-19T14:57:51;18.90;86.10
49222;DHT22;35047;37.588;-122.048;2023-10-19T15:00:25;18.90;86.30
49222;DHT22;35047;37.588;-122.048;2023-10-19T15:02:57;18.90;86.90
49222;DHT22;35047;37.588;-122.048;2023-10-19T15:05:29;18.80;87.10
49222;DHT22;35047;37.588;-122.048;2023-10-19T15:07:55;18.80;87.30
49222;DHT22;35047;37.588;-122.048;2023-10-19T15:10:25;18.70;87.90
49222;DHT22;35047;37.588;-122.048;2023-10-19T15:12:52;18.70;88.30
49222;DHT22;35047;37.588;-122.048;2023-10-19T15:15:19;18.70;88.80
49222;DHT22;35047;37.588;-122.048;2023-10-19T15:17:46;18.80;89.20
49222;DHT22;35047;37.588;-122.048;2023-10-19T15:20:14;18.80;89.80
49222;DHT22;35047;37.588;-122.048;2023-10-19T15:22:42;18.80;90.00